createdAt,value
2017-08-26T00:00:29.157Z,19.38
2017-08-26T00:01:29.172Z,19.31
2017-08-26T00:02:29.189Z,19.31
2017-08-26T00:03:29.204Z,19.38
2017-08-26T00:04:29.244Z,19.31
2017-08-26T00:05:29.255Z,19.38
2017-08-26T00:06:29.248Z,19.31
2017-08-26T00:07:29.262Z,19.31
2017-08-26T00:08:29.277Z,19.25
2017-08-26T00:09:29.305Z,19.25
2017-08-26T00:10:29.308Z,19.25
2017-08-26T00:11:29.322Z,19.25
2017-08-26T00:12:29.346Z,19.25
2017-08-26T00:13:29.391Z,19.19
2017-08-26T00:14:29.376Z,19.19
2017-08-26T00:15:29.386Z,19.19
2017-08-26T00:16:29.406Z,19.19
2017-08-26T00:17:29.436Z,19.13
2017-08-26T00:18:29.465Z,19.13
2017-08-26T00:19:29.451Z,19.13
2017-08-26T00:20:29.498Z,19.13
2017-08-26T00:21:29.477Z,19.19
2017-08-26T00:22:29.502Z,19.25
2017-08-26T00:23:29.510Z,19.19
2017-08-26T00:24:29.539Z,19.25
2017-08-26T00:25:29.550Z,19.25
2017-08-26T00:26:29.564Z,19.25
2017-08-26T00:27:29.572Z,19.25
2017-08-26T00:28:29.630Z,19.25
2017-08-26T00:29:29.595Z,19.25
2017-08-26T00:30:29.658Z,19.19
2017-08-26T00:31:29.634Z,19.19
2017-08-26T00:32:29.662Z,19.19
2017-08-26T00:33:29.653Z,19.13
2017-08-26T00:34:29.686Z,19.06
2017-08-26T00:35:29.693Z,19.06
2017-08-26T00:36:29.716Z,19.06
2017-08-26T00:37:29.715Z,19.06
2017-08-26T00:38:29.744Z,19.06
2017-08-26T00:39:29.750Z,19.00
2017-08-26T00:40:29.755Z,19.06
2017-08-26T00:41:29.773Z,19.06
2017-08-26T00:42:29.788Z,19.06
2017-08-26T00:43:29.801Z,19.06
2017-08-26T00:44:29.823Z,19.00
2017-08-26T00:45:29.829Z,19.06
2017-08-26T00:46:29.843Z,19.00
2017-08-26T00:47:29.864Z,19.00
2017-08-26T00:48:29.879Z,19.00
2017-08-26T00:49:29.891Z,19.06
2017-08-26T00:50:29.922Z,19.06
2017-08-26T00:51:29.918Z,19.13
2017-08-26T00:52:29.947Z,19.13
2017-08-26T00:53:29.949Z,19.13
2017-08-26T00:54:29.963Z,19.06
2017-08-26T00:55:29.984Z,19.00
2017-08-26T00:56:29.993Z,18.94
2017-08-26T00:57:30.004Z,18.94
2017-08-26T00:58:30.027Z,18.94
2017-08-26T00:59:30.051Z,19.00
2017-08-26T01:00:30.064Z,19.06
2017-08-26T01:01:30.074Z,19.06
2017-08-26T01:02:30.083Z,18.94
2017-08-26T01:03:30.098Z,19.00
2017-08-26T01:04:30.119Z,18.94
2017-08-26T01:05:30.165Z,19.00
2017-08-26T01:06:30.153Z,19.00
2017-08-26T01:07:30.151Z,18.94
2017-08-26T01:08:30.209Z,19.00
2017-08-26T01:09:30.187Z,19.00
2017-08-26T01:10:30.199Z,18.94
2017-08-26T01:11:30.216Z,18.94
2017-08-26T01:12:30.228Z,19.00
2017-08-26T01:13:30.253Z,19.00
2017-08-26T01:14:30.283Z,18.94
2017-08-26T01:15:30.281Z,18.94
2017-08-26T01:16:30.297Z,18.94
2017-08-26T01:17:30.300Z,18.88
2017-08-26T01:18:30.330Z,18.94
2017-08-26T01:19:30.335Z,18.88
2017-08-26T01:20:30.364Z,18.81
2017-08-26T01:21:30.371Z,18.75
2017-08-26T01:22:30.385Z,18.75
2017-08-26T01:23:30.398Z,18.75
2017-08-26T01:24:30.411Z,18.69
2017-08-26T01:25:30.421Z,18.69
2017-08-26T01:26:30.451Z,18.63
2017-08-26T01:27:30.463Z,18.69
2017-08-26T01:28:30.471Z,18.69
2017-08-26T01:29:30.490Z,18.69
2017-08-26T01:30:30.500Z,18.75
2017-08-26T01:31:30.512Z,18.75
2017-08-26T01:32:30.528Z,18.69
2017-08-26T01:33:30.561Z,18.69
2017-08-26T01:34:30.553Z,18.69
2017-08-26T01:35:30.571Z,18.69
2017-08-26T01:36:30.587Z,18.69
2017-08-26T01:37:30.648Z,18.75
2017-08-26T01:38:30.612Z,18.75
2017-08-26T01:39:30.634Z,18.75
2017-08-26T01:40:30.669Z,18.69
2017-08-26T01:41:30.663Z,18.69
2017-08-26T01:42:37.377Z,18.75
2017-08-26T01:43:30.692Z,18.69
2017-08-26T01:44:30.703Z,18.69
2017-08-26T01:45:30.714Z,18.69
2017-08-26T01:46:30.735Z,18.69
2017-08-26T01:47:30.742Z,18.69
2017-08-26T01:48:30.762Z,18.75
2017-08-26T01:49:30.775Z,18.75
2017-08-26T01:50:30.788Z,18.75
2017-08-26T01:51:30.801Z,18.75
2017-08-26T01:52:30.827Z,18.81
2017-08-26T01:53:30.835Z,18.81
2017-08-26T01:54:30.855Z,18.81
2017-08-26T01:55:30.861Z,18.75
2017-08-26T01:56:30.880Z,18.75
2017-08-26T01:57:30.889Z,18.75
2017-08-26T01:58:30.927Z,18.69
2017-08-26T01:59:30.968Z,18.69
2017-08-26T02:00:30.949Z,18.69
2017-08-26T02:01:30.956Z,18.69
2017-08-26T02:02:30.962Z,18.69
2017-08-26T02:03:30.992Z,18.69
2017-08-26T02:04:31.020Z,18.69
2017-08-26T02:05:31.013Z,18.69
2017-08-26T02:06:31.017Z,18.69
2017-08-26T02:07:31.043Z,18.63
2017-08-26T02:08:31.055Z,18.63
2017-08-26T02:09:31.080Z,18.63
2017-08-26T02:10:31.087Z,18.63
2017-08-26T02:11:31.097Z,18.63
2017-08-26T02:12:31.118Z,18.63
2017-08-26T02:13:31.125Z,18.63
2017-08-26T02:14:31.135Z,18.63
2017-08-26T02:15:31.153Z,18.63
2017-08-26T02:16:31.172Z,18.56
2017-08-26T02:17:31.207Z,18.50
2017-08-26T02:18:31.199Z,18.50
2017-08-26T02:19:31.246Z,18.50
2017-08-26T02:20:31.228Z,18.50
2017-08-26T02:21:31.242Z,18.44
2017-08-26T02:22:31.247Z,18.50
2017-08-26T02:23:31.267Z,18.50
2017-08-26T02:24:31.289Z,18.50
2017-08-26T02:25:31.304Z,18.44
2017-08-26T02:26:31.310Z,18.44
2017-08-26T02:27:31.349Z,18.38
2017-08-26T02:28:31.353Z,18.38
2017-08-26T02:29:31.381Z,18.38
2017-08-26T02:30:31.388Z,18.38
2017-08-26T02:31:31.384Z,18.38
2017-08-26T02:32:31.408Z,18.38
2017-08-26T02:33:31.414Z,18.38
2017-08-26T02:34:31.427Z,18.38
2017-08-26T02:35:31.444Z,18.38
2017-08-26T02:36:31.464Z,18.38
2017-08-26T02:37:31.470Z,18.38
2017-08-26T02:38:31.484Z,18.38
2017-08-26T02:39:31.499Z,18.31
2017-08-26T02:40:31.540Z,18.31
2017-08-26T02:41:31.538Z,18.19
2017-08-26T02:42:31.543Z,18.13
2017-08-26T02:43:31.582Z,18.19
2017-08-26T02:44:31.571Z,18.19
2017-08-26T02:45:31.599Z,18.25
2017-08-26T02:46:31.631Z,18.25
2017-08-26T02:47:31.654Z,18.25
2017-08-26T02:48:31.634Z,18.25
2017-08-26T02:49:31.656Z,18.25
2017-08-26T02:50:31.669Z,18.25
2017-08-26T02:51:31.675Z,18.25
2017-08-26T02:52:31.698Z,18.31
2017-08-26T02:53:31.702Z,18.31
2017-08-26T02:54:31.719Z,18.31
2017-08-26T02:55:31.729Z,18.31
2017-08-26T02:56:31.759Z,18.31
2017-08-26T02:57:31.761Z,18.31
2017-08-26T02:58:31.780Z,18.25
2017-08-26T02:59:31.793Z,18.25
2017-08-26T03:00:31.806Z,18.25
2017-08-26T03:01:31.820Z,18.25
2017-08-26T03:02:31.836Z,18.25
2017-08-26T03:03:31.851Z,18.25
2017-08-26T03:04:31.870Z,18.19
2017-08-26T03:05:31.875Z,18.25
2017-08-26T03:06:31.897Z,18.19
2017-08-26T03:07:31.908Z,18.06
2017-08-26T03:08:31.920Z,18.06
2017-08-26T03:09:31.931Z,18.06
2017-08-26T03:10:31.951Z,18.00
2017-08-26T03:11:31.968Z,18.00
2017-08-26T03:12:31.977Z,18.00
2017-08-26T03:13:31.992Z,18.00
2017-08-26T03:14:32.004Z,17.94
2017-08-26T03:15:32.020Z,17.94
2017-08-26T03:16:32.036Z,17.94
2017-08-26T03:17:32.050Z,17.88
2017-08-26T03:18:32.065Z,17.88
2017-08-26T03:19:32.079Z,17.88
2017-08-26T03:20:32.109Z,17.88
2017-08-26T03:21:32.113Z,17.81
2017-08-26T03:22:32.119Z,17.88
2017-08-26T03:23:32.146Z,17.81
2017-08-26T03:24:32.160Z,17.75
2017-08-26T03:25:32.164Z,17.75
2017-08-26T03:26:32.177Z,17.69
2017-08-26T03:27:32.194Z,17.75
2017-08-26T03:28:32.207Z,17.75
2017-08-26T03:29:32.223Z,17.75
2017-08-26T03:30:32.231Z,17.75
2017-08-26T03:31:32.252Z,17.75
2017-08-26T03:32:32.265Z,17.69
2017-08-26T03:33:32.278Z,17.63
2017-08-26T03:34:32.300Z,17.69
2017-08-26T03:35:32.305Z,17.69
2017-08-26T03:36:32.314Z,17.75
2017-08-26T03:37:32.332Z,17.81
2017-08-26T03:38:32.353Z,17.81
2017-08-26T03:39:32.360Z,17.81
2017-08-26T03:40:32.384Z,17.81
2017-08-26T03:41:32.394Z,17.88
2017-08-26T03:42:32.407Z,17.88
2017-08-26T03:43:32.417Z,17.81
2017-08-26T03:44:32.440Z,17.81
2017-08-26T03:45:32.467Z,17.88
2017-08-26T03:46:32.459Z,17.88
2017-08-26T03:47:32.473Z,17.88
2017-08-26T03:48:32.491Z,17.94
2017-08-26T03:49:32.506Z,17.94
2017-08-26T03:50:32.514Z,17.94
2017-08-26T03:51:32.533Z,17.94
2017-08-26T03:52:32.548Z,17.88
2017-08-26T03:53:32.565Z,17.94
2017-08-26T03:54:32.574Z,17.88
2017-08-26T03:55:32.588Z,17.88
2017-08-26T03:56:32.604Z,17.88
2017-08-26T03:57:32.623Z,17.88
2017-08-26T03:58:32.631Z,17.88
2017-08-26T03:59:32.646Z,17.88
2017-08-26T04:00:32.661Z,17.88
2017-08-26T04:01:32.672Z,17.81
2017-08-26T04:02:32.686Z,17.88
2017-08-26T04:03:32.700Z,17.88
2017-08-26T04:04:32.722Z,17.88
2017-08-26T04:05:32.734Z,17.88
2017-08-26T04:06:32.742Z,17.81
2017-08-26T04:07:32.764Z,17.81
2017-08-26T04:08:32.773Z,17.88
2017-08-26T04:09:32.782Z,17.81
2017-08-26T04:10:32.820Z,17.81
2017-08-26T04:11:32.815Z,17.81
2017-08-26T04:12:32.828Z,17.81
2017-08-26T04:13:32.859Z,17.88
2017-08-26T04:14:32.889Z,17.81
2017-08-26T04:15:32.883Z,17.81
2017-08-26T04:16:32.906Z,17.81
2017-08-26T04:17:32.899Z,17.81
2017-08-26T04:18:32.910Z,17.81
2017-08-26T04:19:32.930Z,17.75
2017-08-26T04:20:32.943Z,17.81
2017-08-26T04:21:32.957Z,17.81
2017-08-26T04:22:32.966Z,17.81
2017-08-26T04:23:32.977Z,17.81
2017-08-26T04:24:33.019Z,17.81
2017-08-26T04:25:33.018Z,17.75
2017-08-26T04:26:33.032Z,17.75
2017-08-26T04:27:33.065Z,17.75
2017-08-26T04:28:33.048Z,17.75
2017-08-26T04:29:33.073Z,17.75
2017-08-26T04:30:33.081Z,17.75
2017-08-26T04:31:33.094Z,17.69
2017-08-26T04:32:33.118Z,17.69
2017-08-26T04:33:33.124Z,17.69
2017-08-26T04:34:33.134Z,17.69
2017-08-26T04:35:33.145Z,17.69
2017-08-26T04:36:33.165Z,17.63
2017-08-26T04:37:33.177Z,17.63
2017-08-26T04:38:33.196Z,17.63
2017-08-26T04:39:33.215Z,17.69
2017-08-26T04:40:33.237Z,17.63
2017-08-26T04:41:33.261Z,17.69
2017-08-26T04:42:33.264Z,17.75
2017-08-26T04:43:33.259Z,17.75
2017-08-26T04:44:33.274Z,17.75
2017-08-26T04:45:33.303Z,17.75
2017-08-26T04:46:33.309Z,17.75
2017-08-26T04:47:33.317Z,17.75
2017-08-26T04:48:33.330Z,17.81
2017-08-26T04:49:33.368Z,17.81
2017-08-26T04:50:33.388Z,17.75
2017-08-26T04:51:33.398Z,17.75
2017-08-26T04:52:33.395Z,17.81
2017-08-26T04:53:33.408Z,17.75
2017-08-26T04:54:33.429Z,17.63
2017-08-26T04:55:33.475Z,17.63
2017-08-26T04:56:33.447Z,17.69
2017-08-26T04:57:33.490Z,17.69
2017-08-26T04:58:33.473Z,17.75
2017-08-26T04:59:33.485Z,17.69
2017-08-26T05:00:33.512Z,17.69
2017-08-26T05:01:33.512Z,17.69
2017-08-26T05:02:33.528Z,17.69
2017-08-26T05:03:33.557Z,17.69
2017-08-26T05:04:33.579Z,17.75
2017-08-26T05:05:33.575Z,17.75
2017-08-26T05:06:33.619Z,17.75
2017-08-26T05:07:33.630Z,17.81
2017-08-26T05:08:33.636Z,17.75
2017-08-26T05:09:33.659Z,17.75
2017-08-26T05:10:33.673Z,17.88
2017-08-26T05:11:33.664Z,17.94
2017-08-26T05:12:33.695Z,18.00
2017-08-26T05:13:33.684Z,18.00
2017-08-26T05:14:33.709Z,18.00
2017-08-26T05:15:33.771Z,18.00
2017-08-26T05:16:33.727Z,18.06
2017-08-26T05:17:33.772Z,18.13
2017-08-26T05:18:33.755Z,18.19
2017-08-26T05:19:33.774Z,18.19
2017-08-26T05:20:33.807Z,18.25
2017-08-26T05:21:33.813Z,18.25
2017-08-26T05:22:33.838Z,18.31
2017-08-26T05:23:33.839Z,18.25
2017-08-26T05:24:33.841Z,18.25
2017-08-26T05:25:33.862Z,18.19
2017-08-26T05:26:33.890Z,18.19
2017-08-26T05:27:33.895Z,18.25
2017-08-26T05:28:33.901Z,18.31
2017-08-26T05:29:33.933Z,18.38
2017-08-26T05:30:33.951Z,18.44
2017-08-26T05:31:33.954Z,18.44
2017-08-26T05:32:33.969Z,18.44
2017-08-26T05:33:33.979Z,18.50
2017-08-26T05:34:33.981Z,18.56
2017-08-26T05:35:34.020Z,18.63
2017-08-26T05:36:34.038Z,18.63
2017-08-26T05:37:34.031Z,18.69
2017-08-26T05:38:34.059Z,18.69
2017-08-26T05:39:34.062Z,18.69
2017-08-26T05:40:34.070Z,18.75
2017-08-26T05:41:34.108Z,18.75
2017-08-26T05:42:34.102Z,18.75
2017-08-26T05:43:34.116Z,18.75
2017-08-26T05:44:34.128Z,18.81
2017-08-26T05:45:34.148Z,18.81
2017-08-26T05:46:34.160Z,18.88
2017-08-26T05:47:34.180Z,18.81
2017-08-26T05:48:34.192Z,18.81
2017-08-26T05:49:34.204Z,18.88
2017-08-26T05:50:34.227Z,18.94
2017-08-26T05:51:34.230Z,19.00
2017-08-26T05:52:34.247Z,19.00
2017-08-26T05:53:34.261Z,19.00
2017-08-26T05:54:34.291Z,19.06
2017-08-26T05:55:34.290Z,19.13
2017-08-26T05:56:34.308Z,19.25
2017-08-26T05:57:34.321Z,19.38
2017-08-26T05:58:34.373Z,19.44
2017-08-26T05:59:34.349Z,19.50
2017-08-26T06:00:34.381Z,19.56
2017-08-26T06:01:34.393Z,19.63
2017-08-26T06:02:34.394Z,19.56
2017-08-26T06:03:34.415Z,19.63
2017-08-26T06:04:34.431Z,19.63
2017-08-26T06:05:34.440Z,19.56
2017-08-26T06:06:34.455Z,19.50
2017-08-26T06:07:34.474Z,19.56
2017-08-26T06:08:34.499Z,19.63
2017-08-26T06:09:34.507Z,19.69
2017-08-26T06:10:34.515Z,19.75
2017-08-26T06:11:34.527Z,19.75
2017-08-26T06:12:34.541Z,19.94
2017-08-26T06:13:34.557Z,20.31
2017-08-26T06:14:34.578Z,20.94
2017-08-26T06:15:34.600Z,21.44
2017-08-26T06:16:34.607Z,21.81
2017-08-26T06:17:34.620Z,22.31
2017-08-26T06:18:34.640Z,22.69
2017-08-26T06:19:34.650Z,22.88
2017-08-26T06:20:34.682Z,23.00
2017-08-26T06:21:34.692Z,22.69
2017-08-26T06:22:34.710Z,23.06
2017-08-26T06:23:34.729Z,23.06
2017-08-26T06:24:34.753Z,23.06
2017-08-26T06:25:34.753Z,23.50
2017-08-26T06:26:34.783Z,23.81
2017-08-26T06:27:34.805Z,24.00
2017-08-26T06:28:34.797Z,24.13
2017-08-26T06:29:34.832Z,24.19
2017-08-26T06:30:34.868Z,24.19
2017-08-26T06:31:34.870Z,24.31
2017-08-26T06:32:34.869Z,24.38
2017-08-26T06:33:34.920Z,24.50
2017-08-26T06:34:34.905Z,24.75
2017-08-26T06:35:34.938Z,24.88
2017-08-26T06:36:34.937Z,25.00
2017-08-26T06:37:34.958Z,25.19
2017-08-26T06:38:34.972Z,25.13
2017-08-26T06:39:34.991Z,25.31
2017-08-26T06:40:35.036Z,25.44
2017-08-26T06:41:35.025Z,25.44
2017-08-26T06:42:35.049Z,25.06
2017-08-26T06:43:35.062Z,25.31
2017-08-26T06:44:35.102Z,25.38
2017-08-26T06:45:35.099Z,25.13
2017-08-26T06:46:35.119Z,25.31
2017-08-26T06:47:35.147Z,25.56
2017-08-26T06:48:35.185Z,25.44
2017-08-26T06:49:35.202Z,25.50
2017-08-26T06:50:35.191Z,25.63
2017-08-26T06:51:35.227Z,25.88
2017-08-26T06:52:35.227Z,25.69
2017-08-26T06:53:35.268Z,25.44
2017-08-26T06:54:35.287Z,25.75
2017-08-26T06:55:35.296Z,25.06
2017-08-26T06:56:35.327Z,25.13
2017-08-26T06:57:35.324Z,25.19
2017-08-26T06:58:35.341Z,25.56
2017-08-26T06:59:35.382Z,25.94
2017-08-26T07:00:35.387Z,26.13
2017-08-26T07:01:35.406Z,26.25
2017-08-26T07:02:35.419Z,26.44
2017-08-26T07:03:35.443Z,26.69
2017-08-26T07:04:35.459Z,26.88
2017-08-26T07:05:35.484Z,27.00
2017-08-26T07:06:35.491Z,27.13
2017-08-26T07:07:35.509Z,27.19
2017-08-26T07:08:35.537Z,27.25
2017-08-26T07:09:35.547Z,27.31
2017-08-26T07:10:35.572Z,27.38
2017-08-26T07:11:35.592Z,27.50
2017-08-26T07:12:35.603Z,27.63
2017-08-26T07:13:35.642Z,27.94
2017-08-26T07:14:35.649Z,28.06
2017-08-26T07:15:35.680Z,28.13
2017-08-26T07:16:35.680Z,28.25
2017-08-26T07:17:35.709Z,28.25
2017-08-26T07:18:35.728Z,28.31
2017-08-26T07:19:35.740Z,28.25
2017-08-26T07:20:35.762Z,28.38
2017-08-26T07:21:35.787Z,28.56
2017-08-26T07:22:35.803Z,28.75
2017-08-26T07:23:35.826Z,28.88
2017-08-26T07:24:35.842Z,29.13
2017-08-26T07:25:35.864Z,29.25
2017-08-26T07:26:35.884Z,29.44
2017-08-26T07:27:35.903Z,29.56
2017-08-26T07:28:35.925Z,29.69
2017-08-26T07:29:35.942Z,29.50
2017-08-26T07:30:35.963Z,29.19
2017-08-26T07:31:35.991Z,28.94
2017-08-26T07:32:36.008Z,28.88
2017-08-26T07:33:36.058Z,29.00
2017-08-26T07:34:36.040Z,28.88
2017-08-26T07:35:36.058Z,28.69
2017-08-26T07:36:36.084Z,28.88
2017-08-26T07:37:36.105Z,28.69
2017-08-26T07:38:36.128Z,29.00
2017-08-26T07:39:36.143Z,29.44
2017-08-26T07:40:36.162Z,29.63
2017-08-26T07:41:36.190Z,30.00
2017-08-26T07:42:36.202Z,29.69
2017-08-26T07:43:36.221Z,30.00
2017-08-26T07:44:36.248Z,30.00
2017-08-26T07:45:36.289Z,30.31
2017-08-26T07:46:36.301Z,30.75
2017-08-26T07:47:36.299Z,30.25
2017-08-26T07:48:36.325Z,29.75
2017-08-26T07:49:36.341Z,30.38
2017-08-26T07:50:36.359Z,30.38
2017-08-26T07:51:36.380Z,30.81
2017-08-26T07:52:36.403Z,31.25
2017-08-26T07:53:36.418Z,30.50
2017-08-26T07:54:36.442Z,30.19
2017-08-26T07:55:36.460Z,30.19
2017-08-26T07:56:36.481Z,30.44
2017-08-26T07:57:36.501Z,30.75
2017-08-26T07:58:36.521Z,30.13
2017-08-26T07:59:36.543Z,29.63
2017-08-26T08:00:36.561Z,29.50
2017-08-26T08:01:36.577Z,29.50
2017-08-26T08:02:36.634Z,29.25
2017-08-26T08:03:36.621Z,28.94
2017-08-26T08:04:36.639Z,28.69
2017-08-26T08:05:36.658Z,29.50
2017-08-26T08:06:36.679Z,29.94
2017-08-26T08:07:36.711Z,29.69
2017-08-26T08:08:36.724Z,29.56
2017-08-26T08:09:36.739Z,30.44
2017-08-26T08:10:36.760Z,30.94
2017-08-26T08:11:36.779Z,31.44
2017-08-26T08:12:36.799Z,31.75
2017-08-26T08:13:36.822Z,31.63
2017-08-26T08:14:36.867Z,32.13
2017-08-26T08:15:36.863Z,32.38
2017-08-26T08:16:36.879Z,31.56
2017-08-26T08:17:36.897Z,31.94
2017-08-26T08:18:36.924Z,31.94
2017-08-26T08:19:36.943Z,31.81
2017-08-26T08:20:36.994Z,31.81
2017-08-26T08:21:36.983Z,31.94
2017-08-26T08:22:37.014Z,32.00
2017-08-26T08:23:37.046Z,32.00
2017-08-26T08:24:37.054Z,32.38
2017-08-26T08:25:37.061Z,32.81
2017-08-26T08:26:37.097Z,32.88
2017-08-26T08:27:37.112Z,33.00
2017-08-26T08:28:37.114Z,33.06
2017-08-26T08:29:37.157Z,33.44
2017-08-26T08:30:37.169Z,33.75
2017-08-26T08:31:37.184Z,33.94
2017-08-26T08:32:37.217Z,33.69
2017-08-26T08:33:37.229Z,32.69
2017-08-26T08:34:37.255Z,32.69
2017-08-26T08:35:37.272Z,33.19
2017-08-26T08:36:37.301Z,33.44
2017-08-26T08:37:37.294Z,33.44
2017-08-26T08:38:37.307Z,33.75
2017-08-26T08:39:37.324Z,33.81
2017-08-26T08:40:37.372Z,33.63
2017-08-26T08:41:37.381Z,33.56
2017-08-26T08:42:37.380Z,33.38
2017-08-26T08:43:37.411Z,33.56
2017-08-26T08:44:37.436Z,33.94
2017-08-26T08:45:37.461Z,34.31
2017-08-26T08:46:37.509Z,34.63
2017-08-26T08:47:37.475Z,34.81
2017-08-26T08:48:37.511Z,34.69
2017-08-26T08:49:37.553Z,34.75
2017-08-26T08:50:37.568Z,34.94
2017-08-26T08:51:37.565Z,35.06
2017-08-26T08:52:37.581Z,35.00
2017-08-26T08:53:37.607Z,35.13
2017-08-26T08:54:37.635Z,35.19
2017-08-26T08:55:37.636Z,34.94
2017-08-26T08:56:37.683Z,35.13
2017-08-26T08:57:37.696Z,34.94
2017-08-26T08:58:37.700Z,34.63
2017-08-26T08:59:37.724Z,34.63
2017-08-26T09:00:37.765Z,34.75
2017-08-26T09:01:37.775Z,34.94
2017-08-26T09:02:37.800Z,35.13
2017-08-26T09:03:37.807Z,35.13
2017-08-26T09:04:37.820Z,35.31
2017-08-26T09:05:37.858Z,35.19
2017-08-26T09:06:37.855Z,35.50
2017-08-26T09:07:37.873Z,35.63
2017-08-26T09:08:37.911Z,35.94
2017-08-26T09:09:37.909Z,36.13
2017-08-26T09:10:37.940Z,36.19
2017-08-26T09:11:37.943Z,36.25
2017-08-26T09:12:38.002Z,36.44
2017-08-26T09:13:38.006Z,36.50
2017-08-26T09:14:38.008Z,36.25
2017-08-26T09:15:38.030Z,36.44
2017-08-26T09:16:38.056Z,36.25
2017-08-26T09:17:38.068Z,36.38
2017-08-26T09:18:38.090Z,36.25
2017-08-26T09:19:38.112Z,35.94
2017-08-26T09:20:38.126Z,35.94
2017-08-26T09:21:38.133Z,36.13
2017-08-26T09:22:38.166Z,36.25
2017-08-26T09:23:38.190Z,36.56
2017-08-26T09:24:38.200Z,36.75
2017-08-26T09:25:38.202Z,36.88
2017-08-26T09:26:38.244Z,36.94
2017-08-26T09:27:38.255Z,37.13
2017-08-26T09:28:38.262Z,37.25
2017-08-26T09:29:38.283Z,37.31
2017-08-26T09:30:38.329Z,37.06
2017-08-26T09:31:38.320Z,37.38
2017-08-26T09:32:38.343Z,37.50
2017-08-26T09:33:38.355Z,37.63
2017-08-26T09:34:38.382Z,37.44
2017-08-26T09:35:38.388Z,37.44
2017-08-26T09:36:38.439Z,37.69
2017-08-26T09:37:38.462Z,37.81
2017-08-26T09:38:38.489Z,37.81
2017-08-26T09:39:38.489Z,37.88
2017-08-26T09:40:38.490Z,37.81
2017-08-26T09:41:38.536Z,37.94
2017-08-26T09:42:38.534Z,37.94
2017-08-26T09:43:38.545Z,38.19
2017-08-26T09:44:38.571Z,38.31
2017-08-26T09:45:38.585Z,38.25
2017-08-26T09:46:38.612Z,38.38
2017-08-26T09:47:38.618Z,38.44
2017-08-26T09:48:38.646Z,38.44
2017-08-26T09:49:38.671Z,38.50
2017-08-26T09:50:38.682Z,38.50
2017-08-26T09:51:38.706Z,38.50
2017-08-26T09:52:38.733Z,38.50
2017-08-26T09:53:38.737Z,38.56
2017-08-26T09:54:38.748Z,38.56
2017-08-26T09:55:38.771Z,38.56
2017-08-26T09:56:38.780Z,38.63
2017-08-26T09:57:38.808Z,38.69
2017-08-26T09:58:38.819Z,38.69
2017-08-26T09:59:38.841Z,38.81
2017-08-26T10:00:38.861Z,38.81
2017-08-26T10:01:38.878Z,38.94
2017-08-26T10:02:38.896Z,38.94
2017-08-26T10:03:38.914Z,39.06
2017-08-26T10:04:38.934Z,39.06
2017-08-26T10:05:38.976Z,38.56
2017-08-26T10:06:38.973Z,38.75
2017-08-26T10:07:38.992Z,38.75
2017-08-26T10:08:39.010Z,38.75
2017-08-26T10:09:39.028Z,38.63
2017-08-26T10:10:39.047Z,38.69
2017-08-26T10:11:39.068Z,38.75
2017-08-26T10:12:39.091Z,38.94
2017-08-26T10:13:39.102Z,39.00
2017-08-26T10:14:39.120Z,38.94
2017-08-26T10:15:39.138Z,39.00
2017-08-26T10:16:39.158Z,39.13
2017-08-26T10:17:39.173Z,39.31
2017-08-26T10:18:39.195Z,39.25
2017-08-26T10:19:39.215Z,39.38
2017-08-26T10:20:39.239Z,39.31
2017-08-26T10:21:39.251Z,39.38
2017-08-26T10:22:39.285Z,39.50
2017-08-26T10:23:39.294Z,39.25
2017-08-26T10:24:39.308Z,39.38
2017-08-26T10:25:39.321Z,39.56
2017-08-26T10:26:39.359Z,39.38
2017-08-26T10:27:39.380Z,39.44
2017-08-26T10:28:39.381Z,39.56
2017-08-26T10:29:39.401Z,39.44
2017-08-26T10:30:39.413Z,39.56
2017-08-26T10:31:39.440Z,39.63
2017-08-26T10:32:39.468Z,39.75
2017-08-26T10:33:39.477Z,39.88
2017-08-26T10:34:39.484Z,40.00
2017-08-26T10:35:39.507Z,40.00
2017-08-26T10:36:39.561Z,40.00
2017-08-26T10:37:39.549Z,40.00
2017-08-26T10:38:39.571Z,39.94
2017-08-26T10:39:39.586Z,39.69
2017-08-26T10:40:39.604Z,39.81
2017-08-26T10:41:39.632Z,39.88
2017-08-26T10:42:39.640Z,39.75
2017-08-26T10:43:39.655Z,39.50
2017-08-26T10:44:39.679Z,39.00
2017-08-26T10:45:39.691Z,38.75
2017-08-26T10:46:39.711Z,38.44
2017-08-26T10:47:39.732Z,38.75
2017-08-26T10:48:39.745Z,38.69
2017-08-26T10:49:39.767Z,38.75
2017-08-26T10:50:39.787Z,39.00
2017-08-26T10:51:39.804Z,39.25
2017-08-26T10:52:39.817Z,39.50
2017-08-26T10:53:39.844Z,39.69
2017-08-26T10:54:39.860Z,39.88
2017-08-26T10:55:39.880Z,39.88
2017-08-26T10:56:39.897Z,40.06
2017-08-26T10:57:39.915Z,40.06
2017-08-26T10:58:39.960Z,40.19
2017-08-26T10:59:39.951Z,40.19
2017-08-26T11:00:39.973Z,40.31
2017-08-26T11:01:39.984Z,40.13
2017-08-26T11:02:40.008Z,40.19
2017-08-26T11:03:40.034Z,40.13
2017-08-26T11:04:40.040Z,40.25
2017-08-26T11:05:40.058Z,40.25
2017-08-26T11:06:40.075Z,40.25
2017-08-26T11:07:40.102Z,40.00
2017-08-26T11:08:40.118Z,39.88
2017-08-26T11:09:40.137Z,39.88
2017-08-26T11:10:40.159Z,39.88
2017-08-26T11:11:40.174Z,39.94
2017-08-26T11:12:40.195Z,40.06
2017-08-26T11:13:40.208Z,40.00
2017-08-26T11:14:40.236Z,40.19
2017-08-26T11:15:40.256Z,40.31
2017-08-26T11:16:40.260Z,40.38
2017-08-26T11:17:40.281Z,40.19
2017-08-26T11:18:40.312Z,39.88
2017-08-26T11:19:40.321Z,39.94
2017-08-26T11:20:40.355Z,40.13
2017-08-26T11:21:40.361Z,40.00
2017-08-26T11:22:40.398Z,40.06
2017-08-26T11:23:40.404Z,40.19
2017-08-26T11:24:40.431Z,40.31
2017-08-26T11:25:40.438Z,40.50
2017-08-26T11:26:40.456Z,40.63
2017-08-26T11:27:40.503Z,40.50
2017-08-26T11:28:40.490Z,40.44
2017-08-26T11:29:40.505Z,39.94
2017-08-26T11:30:40.524Z,39.94
2017-08-26T11:31:40.582Z,39.75
2017-08-26T11:32:40.594Z,39.13
2017-08-26T11:33:40.606Z,39.13
2017-08-26T11:34:40.658Z,39.25
2017-08-26T11:35:40.648Z,39.38
2017-08-26T11:36:40.648Z,39.25
2017-08-26T11:37:40.708Z,39.38
2017-08-26T11:38:40.686Z,39.50
2017-08-26T11:39:40.710Z,39.81
2017-08-26T11:40:40.750Z,39.88
2017-08-26T11:41:40.738Z,39.88
2017-08-26T11:42:40.799Z,39.75
2017-08-26T11:43:40.807Z,39.81
2017-08-26T11:44:40.824Z,39.88
2017-08-26T11:45:40.849Z,39.63
2017-08-26T11:46:40.869Z,38.81
2017-08-26T11:47:40.876Z,37.56
2017-08-26T11:48:40.870Z,36.56
2017-08-26T11:49:40.890Z,35.44
2017-08-26T11:50:40.916Z,34.88
2017-08-26T11:51:40.951Z,34.38
2017-08-26T11:52:40.980Z,34.00
2017-08-26T11:53:40.981Z,33.63
2017-08-26T11:54:41.925Z,33.44
2017-08-26T11:55:41.026Z,33.38
2017-08-26T11:56:41.059Z,33.25
2017-08-26T11:57:41.055Z,33.00
2017-08-26T11:58:41.104Z,32.88
2017-08-26T11:59:41.102Z,32.69
2017-08-26T12:00:41.102Z,32.56
2017-08-26T12:01:41.146Z,32.56
2017-08-26T12:02:41.173Z,32.50
2017-08-26T12:03:41.193Z,32.31
2017-08-26T12:04:41.182Z,32.25
2017-08-26T12:05:41.191Z,32.19
2017-08-26T12:06:41.223Z,32.19
2017-08-26T12:07:41.252Z,32.06
2017-08-26T12:08:41.265Z,31.75
2017-08-26T12:09:41.286Z,31.75
2017-08-26T12:10:41.290Z,31.63
2017-08-26T12:11:41.342Z,31.50
2017-08-26T12:12:41.334Z,31.56
2017-08-26T12:13:41.361Z,31.56
2017-08-26T12:14:41.400Z,31.56
2017-08-26T12:15:41.395Z,31.44
2017-08-26T12:16:41.435Z,31.38
2017-08-26T12:17:41.433Z,31.31
2017-08-26T12:18:41.447Z,31.31
2017-08-26T12:19:41.485Z,31.31
2017-08-26T12:20:41.506Z,31.25
2017-08-26T12:21:41.511Z,31.25
2017-08-26T12:22:41.543Z,31.19
2017-08-26T12:23:41.551Z,31.06
2017-08-26T12:24:41.557Z,31.06
2017-08-26T12:25:41.583Z,30.94
2017-08-26T12:26:41.629Z,30.75
2017-08-26T12:27:41.639Z,30.75
2017-08-26T12:28:41.646Z,30.69
2017-08-26T12:29:41.669Z,30.69
2017-08-26T12:30:41.673Z,30.63
2017-08-26T12:31:41.712Z,30.63
2017-08-26T12:32:41.729Z,30.56
2017-08-26T12:33:41.718Z,30.50
2017-08-26T12:34:41.765Z,30.31
2017-08-26T12:35:41.765Z,30.31
2017-08-26T12:36:41.802Z,30.31
2017-08-26T12:37:41.817Z,30.31
2017-08-26T12:38:41.814Z,30.31
2017-08-26T12:39:41.839Z,30.31
2017-08-26T12:40:41.890Z,30.31
2017-08-26T12:41:41.897Z,30.25
2017-08-26T12:42:41.897Z,30.31
2017-08-26T12:43:41.929Z,30.25
2017-08-26T12:44:41.950Z,30.19
2017-08-26T12:45:41.968Z,30.13
2017-08-26T12:46:41.989Z,30.06
2017-08-26T12:47:42.008Z,30.06
2017-08-26T12:48:42.044Z,30.00
2017-08-26T12:49:42.030Z,30.00
2017-08-26T12:50:42.056Z,29.94
2017-08-26T12:51:42.074Z,29.88
2017-08-26T12:52:42.115Z,29.88